Archival Weather

Václav Havel Intl Apt

Prague, Czechia (LKPR)

Report from: Monday, May 29, 2023 12:30 PM CEST
Current time: Friday, July 19, 2024 5:01 AM CEST

Current weather – Weather history – Daily summaries
Weather forecast

Temperature20.0°C (68.0°F)
Dew point3.0°C (37.4°F)
Winds 5 kts (2.6 m/s, 5.8 mph) Vrb
Winds variableWinds variable
Clouds Sky clear
Altimeter30.12 in.Hg (1020 mB)
Relative humidity32 %
Density altitude473 ft. (144 m)
Remarks Ceiling and visibility OK
No significant changes expected in the next two hours
Flight conditions Visual Meteorological Conditions
Raw dataLKPR 291030Z VRB05KT CAVOK 20/03 Q1020 NOSIG
An error has occurred. This application may no longer respond until reloaded. Reload 🗙